createdAt,value
2023-02-14T00:00:16.598Z,72.36
2023-02-14T00:02:20.114Z,72.34
2023-02-14T00:04:23.511Z,72.45
2023-02-14T00:06:29.902Z,72.65
2023-02-14T00:08:33.381Z,72.44
2023-02-14T00:10:36.648Z,72.59
2023-02-14T00:12:39.913Z,72.57
2023-02-14T00:15:00.398Z,72.65
2023-02-14T00:17:03.833Z,72.62
2023-02-14T00:19:07.078Z,72.54
2023-02-14T00:21:10.266Z,72.38
2023-02-14T00:23:15.047Z,72.44
2023-02-14T00:25:18.478Z,72.36
2023-02-14T00:27:21.717Z,72.01
2023-02-14T00:29:27.725Z,71.97
2023-02-14T00:31:31.168Z,72.02
2023-02-14T00:33:34.472Z,72.16
2023-02-14T00:35:38.983Z,72.16
2023-02-14T00:37:42.297Z,72.23
2023-02-14T00:39:46.934Z,72.26
2023-02-14T00:41:50.120Z,72.24
2023-02-14T00:43:54.578Z,72.41
2023-02-14T00:45:58.066Z,72.28
2023-02-14T00:48:01.363Z,72.15
2023-02-14T00:50:05.146Z,72.16
2023-02-14T00:52:08.430Z,72.50
2023-02-14T00:54:11.628Z,72.59
2023-02-14T00:56:17.272Z,72.60
2023-02-14T00:58:20.512Z,72.67
2023-02-14T01:00:24.316Z,72.65
2023-02-14T01:02:32.226Z,72.44
2023-02-14T01:04:35.660Z,72.41
2023-02-14T01:06:39.110Z,72.27
2023-02-14T01:08:42.563Z,72.39
2023-02-14T01:10:46.057Z,72.32
2023-02-14T01:12:50.729Z,72.40
2023-02-14T01:14:54.014Z,72.77
2023-02-14T01:16:57.156Z,72.43
2023-02-14T01:19:02.083Z,72.50
2023-02-14T01:21:16.744Z,72.55
2023-02-14T01:24:14.331Z,72.33
2023-02-14T01:27:30.571Z,72.55
2023-02-14T01:29:53.794Z,72.65
2023-02-14T01:31:57.096Z,72.69
2023-02-14T01:34:01.976Z,72.82
2023-02-14T01:36:05.861Z,72.96
2023-02-14T01:38:09.168Z,72.85
2023-02-14T01:40:14.614Z,72.87
2023-02-14T01:42:19.668Z,73.05
2023-02-14T01:45:03.322Z,73.26
2023-02-14T01:47:11.428Z,73.42
2023-02-14T01:49:18.387Z,73.54
2023-02-14T01:51:22.543Z,73.48
2023-02-14T01:53:30.022Z,73.46
2023-02-14T01:55:38.019Z,73.50
2023-02-14T01:57:46.231Z,73.57
2023-02-14T01:59:54.134Z,73.47
2023-02-14T02:01:59.133Z,73.68
2023-02-14T02:04:08.832Z,73.72
2023-02-14T02:06:16.416Z,73.80
2023-02-14T02:08:20.636Z,73.94
2023-02-14T02:10:24.408Z,73.90
2023-02-14T02:12:30.811Z,74.23
2023-02-14T02:14:36.070Z,74.03
2023-02-14T02:16:55.671Z,74.00
2023-02-14T02:19:22.813Z,74.05
2023-02-14T02:21:59.884Z,73.89
2023-02-14T02:24:16.781Z,73.97
2023-02-14T02:26:50.506Z,74.12
2023-02-14T02:29:21.881Z,74.29
2023-02-14T02:31:44.390Z,74.36
2023-02-14T02:34:17.498Z,74.19
2023-02-14T02:36:48.851Z,74.27
2023-02-14T02:39:17.169Z,74.25
2023-02-14T02:41:32.284Z,74.43
2023-02-14T02:43:45.292Z,74.72
2023-02-14T02:46:09.526Z,74.58
2023-02-14T02:48:23.182Z,74.63
2023-02-14T02:50:48.721Z,74.76
2023-02-14T02:53:03.314Z,74.72
2023-02-14T02:55:14.509Z,74.75
2023-02-14T02:57:22.775Z,74.74
2023-02-14T02:59:30.255Z,75.06
2023-02-14T03:01:39.353Z,74.93
2023-02-14T03:04:04.965Z,74.83
2023-02-14T03:06:08.649Z,75.11
2023-02-14T03:08:13.306Z,75.18
2023-02-14T03:10:18.810Z,75.01
2023-02-14T03:12:41.408Z,75.00
2023-02-14T03:14:51.363Z,75.17
2023-02-14T03:17:06.975Z,74.97
2023-02-14T03:19:59.865Z,75.02
2023-02-14T03:22:15.702Z,75.21
2023-02-14T03:24:28.673Z,75.26
2023-02-14T03:26:39.100Z,75.40
2023-02-14T03:28:48.427Z,75.48
2023-02-14T03:31:00.696Z,75.52
2023-02-14T03:33:07.728Z,75.56
2023-02-14T03:35:20.841Z,75.45
2023-02-14T03:37:30.148Z,75.65
2023-02-14T03:39:42.371Z,75.76
2023-02-14T03:41:50.292Z,75.80
2023-02-14T03:43:57.760Z,75.71
2023-02-14T03:46:07.847Z,75.78
2023-02-14T03:48:13.987Z,75.84
2023-02-14T03:50:20.102Z,75.90
2023-02-14T03:52:26.332Z,76.06
2023-02-14T03:54:32.535Z,76.11
2023-02-14T03:56:41.236Z,75.97
2023-02-14T03:58:48.977Z,76.18
2023-02-14T04:00:58.261Z,76.17
2023-02-14T04:03:05.965Z,76.09
2023-02-14T04:05:14.312Z,76.24
2023-02-14T04:07:19.844Z,76.16
2023-02-14T04:09:22.988Z,76.11
2023-02-14T04:11:26.226Z,76.14
2023-02-14T04:13:30.849Z,75.98
2023-02-14T04:15:34.180Z,76.24
2023-02-14T04:17:55.052Z,76.28
2023-02-14T04:19:58.279Z,76.34
2023-02-14T04:22:01.443Z,76.14
2023-02-14T04:24:04.936Z,76.24
2023-02-14T04:26:08.165Z,76.05
2023-02-14T04:28:11.312Z,76.28
2023-02-14T04:30:18.085Z,76.30
2023-02-14T04:32:23.348Z,76.29
2023-02-14T04:34:26.792Z,76.38
2023-02-14T04:36:29.972Z,76.23
2023-02-14T04:38:33.928Z,76.33
2023-02-14T04:40:37.173Z,76.30
2023-02-14T04:42:40.348Z,76.35
2023-02-14T04:44:43.604Z,76.35
2023-02-14T04:46:48.188Z,76.31
2023-02-14T04:48:51.431Z,76.44
2023-02-14T04:50:55.340Z,76.81
2023-02-14T04:52:58.529Z,76.49
2023-02-14T04:55:01.642Z,76.67
2023-02-14T04:57:04.897Z,76.63
2023-02-14T04:59:08.134Z,76.68
2023-02-14T05:01:11.277Z,76.46
2023-02-14T05:03:15.839Z,76.62
2023-02-14T05:05:19.332Z,76.68
2023-02-14T05:07:22.494Z,76.69
2023-02-14T05:09:25.776Z,76.79
2023-02-14T05:11:29.367Z,76.76
2023-02-14T05:13:33.056Z,76.63
2023-02-14T05:15:38.392Z,76.85
2023-02-14T05:17:41.985Z,77.19
2023-02-14T05:19:46.588Z,77.21
2023-02-14T05:21:49.786Z,77.11
2023-02-14T05:23:52.914Z,76.89
2023-02-14T05:25:56.136Z,76.91
2023-02-14T05:27:59.565Z,77.02
2023-02-14T05:30:02.909Z,76.93
2023-02-14T05:32:06.560Z,76.95
2023-02-14T05:34:09.782Z,77.01
2023-02-14T05:36:14.506Z,76.97
2023-02-14T05:38:17.937Z,77.10
2023-02-14T05:40:21.374Z,76.83
2023-02-14T05:42:24.594Z,77.07
2023-02-14T05:44:27.913Z,76.88
2023-02-14T05:46:31.080Z,76.92
2023-02-14T05:48:35.088Z,76.80
2023-02-14T05:50:38.336Z,76.73
2023-02-14T05:52:43.395Z,76.72
2023-02-14T05:54:46.596Z,76.79
2023-02-14T05:56:49.787Z,76.67
2023-02-14T05:58:53.036Z,76.93
2023-02-14T06:00:57.853Z,77.00
2023-02-14T06:03:01.312Z,76.87
2023-02-14T06:05:04.443Z,76.91
2023-02-14T06:07:07.599Z,77.04
2023-02-14T06:09:12.182Z,76.88
2023-02-14T06:11:15.343Z,77.10
2023-02-14T06:13:18.526Z,77.08
2023-02-14T06:15:22.463Z,77.00
2023-02-14T06:17:25.664Z,77.09
2023-02-14T06:19:28.973Z,77.15
2023-02-14T06:21:32.447Z,77.17
2023-02-14T06:23:35.675Z,77.01
2023-02-14T06:25:40.207Z,77.04
2023-02-14T06:27:43.453Z,77.22
2023-02-14T06:29:46.809Z,77.31
2023-02-14T06:31:50.206Z,77.28
2023-02-14T06:33:54.019Z,77.20
2023-02-14T06:35:57.220Z,77.27
2023-02-14T06:38:00.374Z,77.09
2023-02-14T06:40:03.919Z,77.21
2023-02-14T06:42:08.722Z,77.29
2023-02-14T06:44:11.996Z,77.24
2023-02-14T06:46:15.333Z,77.38
2023-02-14T06:48:18.548Z,77.41
2023-02-14T06:50:21.731Z,77.16
2023-02-14T06:52:24.910Z,77.05
2023-02-14T06:54:28.126Z,77.09
2023-02-14T06:56:31.293Z,77.26
2023-02-14T06:58:36.235Z,77.24
2023-02-14T07:00:39.825Z,77.12
2023-02-14T07:02:43.528Z,77.31
2023-02-14T07:04:46.868Z,77.46
2023-02-14T07:06:50.064Z,77.12
2023-02-14T07:08:53.332Z,77.17
2023-02-14T07:10:58.236Z,77.34
2023-02-14T07:13:02.035Z,77.16
2023-02-14T07:15:07.421Z,77.07
2023-02-14T07:17:10.739Z,77.02
2023-02-14T07:19:14.205Z,77.08
2023-02-14T07:21:17.563Z,77.03
2023-02-14T07:23:20.855Z,77.28
2023-02-14T07:25:23.996Z,77.13
2023-02-14T07:27:27.369Z,77.17
2023-02-14T07:29:30.565Z,77.32
2023-02-14T07:31:35.196Z,77.02
2023-02-14T07:33:38.497Z,77.08
2023-02-14T07:35:41.708Z,77.05
2023-02-14T07:37:44.879Z,77.09
2023-02-14T07:39:48.135Z,77.04
2023-02-14T07:41:51.577Z,76.96
2023-02-14T07:43:56.093Z,76.78
2023-02-14T07:46:00.836Z,76.84
2023-02-14T07:48:05.993Z,76.52
2023-02-14T07:50:09.716Z,76.60
2023-02-14T07:52:12.909Z,76.78
2023-02-14T07:54:16.066Z,76.48
2023-02-14T07:56:19.277Z,76.32
2023-02-14T07:58:22.559Z,76.22
2023-02-14T08:00:25.794Z,76.22
2023-02-14T08:02:29.234Z,76.19
2023-02-14T08:04:34.140Z,76.23
2023-02-14T08:06:37.377Z,76.30
2023-02-14T08:08:40.840Z,76.35
2023-02-14T08:10:44.078Z,76.34
2023-02-14T08:13:01.406Z,76.27
2023-02-14T08:15:18.911Z,76.15
2023-02-14T08:17:22.057Z,76.10
2023-02-14T08:19:25.301Z,76.01
2023-02-14T08:21:29.989Z,76.06
2023-02-14T08:23:33.373Z,75.81
2023-02-14T08:25:36.584Z,75.71
2023-02-14T08:27:40.237Z,75.53
2023-02-14T08:29:43.359Z,75.60
2023-02-14T08:31:47.435Z,75.39
2023-02-14T08:33:50.764Z,75.29
2023-02-14T08:35:54.129Z,75.34
2023-02-14T08:37:58.751Z,75.12
2023-02-14T08:40:02.041Z,75.07
2023-02-14T08:42:05.549Z,75.15
2023-02-14T08:44:08.798Z,75.04
2023-02-14T08:46:13.104Z,74.90
2023-02-14T08:48:16.396Z,74.87
2023-02-14T08:50:20.503Z,74.76
2023-02-14T08:52:23.732Z,74.81
2023-02-14T08:54:28.392Z,74.58
2023-02-14T08:56:31.593Z,74.67
2023-02-14T08:58:35.901Z,74.70
2023-02-14T09:00:39.748Z,74.64
2023-02-14T09:02:43.169Z,74.60
2023-02-14T09:04:46.661Z,74.56
2023-02-14T09:06:49.900Z,74.60
2023-02-14T09:08:55.150Z,74.64
2023-02-14T09:11:00.213Z,74.40
2023-02-14T09:13:04.248Z,74.18
2023-02-14T09:15:08.324Z,74.03
2023-02-14T09:17:12.991Z,74.06
2023-02-14T09:19:16.125Z,73.90
2023-02-14T09:21:21.425Z,73.71
2023-02-14T09:23:24.902Z,73.52
2023-02-14T09:25:28.130Z,73.52
2023-02-14T09:27:32.769Z,73.48
2023-02-14T09:29:36.040Z,73.33
2023-02-14T09:31:39.929Z,73.39
2023-02-14T09:33:44.491Z,73.15
2023-02-14T09:35:47.664Z,73.03
2023-02-14T09:38:08.253Z,72.89
2023-02-14T09:40:14.792Z,72.84
2023-02-14T09:42:41.163Z,72.74
2023-02-14T09:44:53.980Z,72.45
2023-02-14T09:47:02.396Z,72.25
2023-02-14T09:49:12.376Z,72.26
2023-02-14T09:51:22.809Z,72.02
2023-02-14T09:53:30.485Z,71.72
2023-02-14T09:55:40.548Z,71.72
2023-02-14T09:58:05.773Z,71.39
2023-02-14T10:00:19.014Z,71.27
2023-02-14T10:02:40.564Z,71.18
2023-02-14T10:04:56.947Z,70.97
2023-02-14T10:07:09.393Z,70.77
2023-02-14T10:09:23.645Z,70.53
2023-02-14T10:11:26.952Z,70.42
2023-02-14T10:13:36.685Z,70.36
2023-02-14T10:15:44.141Z,70.46
2023-02-14T10:17:52.548Z,70.56
2023-02-14T10:20:01.002Z,70.40
2023-02-14T10:22:09.182Z,70.53
2023-02-14T10:24:17.817Z,70.50
2023-02-14T10:26:27.313Z,70.49
2023-02-14T10:28:38.381Z,70.34
2023-02-14T10:30:51.089Z,70.25
2023-02-14T10:33:04.485Z,69.97
2023-02-14T10:35:17.518Z,69.74
2023-02-14T10:37:33.798Z,69.87
2023-02-14T10:39:59.826Z,69.74
2023-02-14T10:42:12.991Z,69.77
2023-02-14T10:44:31.702Z,69.32
2023-02-14T10:46:41.985Z,69.42
2023-02-14T10:48:53.104Z,69.48
2023-02-14T10:51:03.109Z,69.27
2023-02-14T10:53:17.147Z,69.16
2023-02-14T10:55:32.370Z,68.95
2023-02-14T10:57:39.542Z,68.88
2023-02-14T10:59:50.710Z,68.97
2023-02-14T11:01:56.340Z,68.64
2023-02-14T11:04:06.626Z,68.63
2023-02-14T11:06:11.402Z,68.24
2023-02-14T11:08:23.414Z,68.05
2023-02-14T11:10:31.190Z,68.03
2023-02-14T11:12:39.372Z,68.04
2023-02-14T11:14:43.710Z,67.96
2023-02-14T11:16:51.863Z,67.92
2023-02-14T11:19:10.395Z,67.75
2023-02-14T11:21:17.807Z,67.49
2023-02-14T11:23:22.687Z,67.28
2023-02-14T11:25:28.133Z,67.25
2023-02-14T11:27:32.483Z,67.31
2023-02-14T11:29:44.965Z,67.29
2023-02-14T11:31:50.200Z,67.30
2023-02-14T11:33:54.451Z,67.33
2023-02-14T11:35:59.260Z,67.22
2023-02-14T11:38:05.154Z,66.97
2023-02-14T11:40:24.975Z,66.80
2023-02-14T11:42:38.931Z,66.67
2023-02-14T11:44:58.640Z,66.74
2023-02-14T11:47:26.977Z,66.89
2023-02-14T11:49:33.360Z,66.84
2023-02-14T11:51:40.319Z,66.71
2023-02-14T11:53:47.445Z,66.77
2023-02-14T11:55:56.070Z,66.71
2023-02-14T11:58:00.073Z,66.67
2023-02-14T12:00:13.319Z,66.35
2023-02-14T12:02:28.315Z,66.28
2023-02-14T12:04:45.648Z,66.29
2023-02-14T12:06:49.829Z,66.31
2023-02-14T12:08:53.242Z,66.36
2023-02-14T12:11:03.813Z,66.02
2023-02-14T12:13:25.718Z,65.58
2023-02-14T12:15:37.025Z,65.29
2023-02-14T12:17:46.916Z,65.24
2023-02-14T12:19:53.110Z,65.16
2023-02-14T12:22:01.299Z,65.25
2023-02-14T12:24:13.770Z,65.03
2023-02-14T12:26:27.493Z,64.95
2023-02-14T12:28:38.556Z,64.65
2023-02-14T12:30:42.550Z,64.56
2023-02-14T12:32:50.535Z,64.19
2023-02-14T12:34:59.870Z,64.22
2023-02-14T12:37:30.647Z,63.76
2023-02-14T12:39:39.337Z,64.00
2023-02-14T12:41:50.447Z,63.85
2023-02-14T12:43:56.041Z,63.51
2023-02-14T12:46:12.927Z,63.64
2023-02-14T12:48:28.899Z,63.97
2023-02-14T12:50:43.300Z,63.66
2023-02-14T12:53:26.557Z,63.77
2023-02-14T12:55:42.495Z,63.58
2023-02-14T12:57:52.400Z,63.28
2023-02-14T13:00:04.602Z,63.31
2023-02-14T13:02:56.257Z,63.27
2023-02-14T13:05:06.971Z,63.27
2023-02-14T13:07:20.131Z,63.09
2023-02-14T13:09:36.102Z,62.80
2023-02-14T13:11:48.511Z,62.49
2023-02-14T13:14:04.572Z,62.64
2023-02-14T13:16:16.727Z,62.48
2023-02-14T13:18:35.614Z,62.43
2023-02-14T13:20:50.446Z,62.15
2023-02-14T13:22:56.909Z,61.83
2023-02-14T13:25:04.790Z,61.17
2023-02-14T13:27:13.674Z,60.94
2023-02-14T13:29:20.640Z,60.69
2023-02-14T13:31:24.559Z,59.61
2023-02-14T13:33:34.908Z,58.99
2023-02-14T13:35:39.123Z,58.49
2023-02-14T13:37:51.222Z,57.97
2023-02-14T13:39:57.831Z,57.65
2023-02-14T13:42:01.597Z,57.81
2023-02-14T13:44:05.505Z,57.80
2023-02-14T13:46:09.016Z,57.49
2023-02-14T13:48:14.430Z,57.56
2023-02-14T13:50:22.904Z,57.68
2023-02-14T13:52:46.118Z,57.84
2023-02-14T13:54:50.116Z,57.54
2023-02-14T13:56:53.709Z,57.41
2023-02-14T13:59:00.366Z,57.03
2023-02-14T14:01:33.058Z,56.75
2023-02-14T14:03:57.687Z,56.55
2023-02-14T14:06:08.328Z,56.87
2023-02-14T14:08:42.403Z,56.51
2023-02-14T14:10:47.034Z,56.39
2023-02-14T14:12:52.202Z,56.73
2023-02-14T14:15:13.237Z,56.87
2023-02-14T14:17:21.895Z,57.20
2023-02-14T14:19:39.882Z,57.06
2023-02-14T14:21:44.813Z,57.17
2023-02-14T14:24:06.236Z,57.28
2023-02-14T14:26:35.264Z,57.03
2023-02-14T14:28:38.756Z,56.91
2023-02-14T14:30:45.613Z,57.12
2023-02-14T14:32:49.042Z,56.84
2023-02-14T14:34:54.060Z,56.37
2023-02-14T14:37:04.154Z,56.15
2023-02-14T14:39:11.243Z,55.76
2023-02-14T14:41:14.695Z,55.55
2023-02-14T14:43:23.100Z,55.51
2023-02-14T14:45:28.327Z,55.58
2023-02-14T14:47:38.812Z,55.78
2023-02-14T14:49:42.280Z,56.13
2023-02-14T14:51:46.607Z,56.23
2023-02-14T14:53:53.808Z,56.78
2023-02-14T14:55:59.310Z,57.01
2023-02-14T14:58:05.011Z,57.42
2023-02-14T15:00:28.674Z,57.57
2023-02-14T15:02:32.159Z,58.01
2023-02-14T15:04:36.583Z,58.11
2023-02-14T15:06:41.033Z,58.33
2023-02-14T15:08:44.676Z,58.73
2023-02-14T15:10:52.411Z,58.70
2023-02-14T15:13:17.057Z,58.63
2023-02-14T15:15:20.554Z,58.70
2023-02-14T15:17:27.737Z,58.91
2023-02-14T15:19:37.140Z,59.50
2023-02-14T15:21:44.635Z,59.49
2023-02-14T15:23:48.927Z,59.60
2023-02-14T15:25:53.706Z,59.70
2023-02-14T15:27:58.597Z,59.96
2023-02-14T15:30:06.713Z,59.97
2023-02-14T15:32:12.005Z,60.24
2023-02-14T15:34:15.864Z,60.25
2023-02-14T15:36:25.259Z,60.56
2023-02-14T15:38:29.403Z,60.68
2023-02-14T15:40:36.387Z,60.77
2023-02-14T15:42:42.374Z,60.87
2023-02-14T15:44:47.104Z,61.27
2023-02-14T15:46:55.337Z,61.31
2023-02-14T15:49:01.595Z,61.46
2023-02-14T15:51:06.468Z,61.79
2023-02-14T15:53:27.774Z,61.62
2023-02-14T15:55:33.433Z,62.09
2023-02-14T15:57:38.431Z,62.12
2023-02-14T15:59:43.568Z,62.52
2023-02-14T16:01:54.500Z,62.72
2023-02-14T16:04:00.706Z,63.10
2023-02-14T16:06:05.304Z,63.25
2023-02-14T16:08:27.788Z,63.50
2023-02-14T16:10:32.792Z,63.71
2023-02-14T16:12:38.190Z,64.38
2023-02-14T16:14:45.764Z,64.70
2023-02-14T16:17:02.026Z,65.11
2023-02-14T16:19:06.629Z,65.32
2023-02-14T16:21:15.566Z,65.81
2023-02-14T16:23:23.163Z,66.00
2023-02-14T16:25:26.626Z,66.54
2023-02-14T16:27:30.019Z,66.57
2023-02-14T16:29:33.907Z,66.70
2023-02-14T16:31:39.917Z,67.33
2023-02-14T16:33:45.029Z,67.48
2023-02-14T16:35:49.378Z,67.74
2023-02-14T16:37:53.560Z,68.09
2023-02-14T16:39:57.845Z,68.40
2023-02-14T16:42:01.360Z,68.84
2023-02-14T16:44:07.043Z,69.09
2023-02-14T16:46:12.684Z,69.57
2023-02-14T16:48:16.960Z,69.83
2023-02-14T16:50:22.834Z,70.05
2023-02-14T16:52:28.286Z,70.45
2023-02-14T16:54:32.577Z,70.64
2023-02-14T16:56:40.674Z,70.98
2023-02-14T16:58:44.543Z,71.34
2023-02-14T17:00:47.900Z,71.46
2023-02-14T17:02:51.551Z,71.80
2023-02-14T17:04:55.370Z,72.01
2023-02-14T17:07:05.876Z,72.22
2023-02-14T17:09:13.741Z,72.57
2023-02-14T17:11:17.320Z,72.68
2023-02-14T17:13:25.241Z,72.96
2023-02-14T17:15:30.224Z,73.26
2023-02-14T17:17:35.106Z,73.38
2023-02-14T17:19:38.831Z,73.55
2023-02-14T17:21:43.915Z,73.84
2023-02-14T17:23:48.946Z,74.12
2023-02-14T17:25:52.519Z,74.21
2023-02-14T17:27:56.532Z,74.42
2023-02-14T17:29:59.980Z,74.64
2023-02-14T17:32:07.165Z,74.74
2023-02-14T17:34:11.138Z,75.06
2023-02-14T17:36:15.790Z,75.14
2023-02-14T17:38:21.627Z,75.34
2023-02-14T17:40:26.456Z,75.50
2023-02-14T17:42:31.800Z,75.94
2023-02-14T17:44:36.031Z,75.88
2023-02-14T17:46:39.622Z,76.25
2023-02-14T17:48:45.514Z,76.28
2023-02-14T17:50:48.945Z,76.38
2023-02-14T17:52:55.522Z,76.63
2023-02-14T17:54:59.112Z,76.79
2023-02-14T17:57:04.660Z,76.78
2023-02-14T17:59:08.014Z,77.04
2023-02-14T18:01:13.265Z,77.14
2023-02-14T18:03:20.374Z,77.40
2023-02-14T18:05:24.213Z,77.48
2023-02-14T18:07:27.689Z,77.62
2023-02-14T18:09:31.291Z,78.00
2023-02-14T18:11:34.730Z,78.08
2023-02-14T18:13:40.080Z,78.16
2023-02-14T18:15:43.499Z,78.28
2023-02-14T18:17:50.769Z,78.27
2023-02-14T18:19:54.263Z,78.40
2023-02-14T18:21:58.169Z,78.70
2023-02-14T18:24:03.091Z,78.79
2023-02-14T18:26:08.455Z,78.63
2023-02-14T18:28:11.846Z,78.74
2023-02-14T18:30:17.236Z,79.02
2023-02-14T18:32:20.784Z,78.98
2023-02-14T18:34:24.441Z,79.17
2023-02-14T18:36:28.535Z,79.25
2023-02-14T18:38:31.874Z,79.38
2023-02-14T18:40:35.784Z,79.42
2023-02-14T18:42:39.206Z,79.47
2023-02-14T18:44:42.585Z,79.69
2023-02-14T18:46:47.391Z,79.92
2023-02-14T18:48:51.517Z,80.10
2023-02-14T18:50:54.892Z,80.50
2023-02-14T18:52:58.301Z,80.66
2023-02-14T18:55:01.713Z,81.02
2023-02-14T18:57:05.164Z,81.31
2023-02-14T18:59:10.421Z,81.33
2023-02-14T19:01:15.658Z,81.65
2023-02-14T19:03:20.504Z,81.77
2023-02-14T19:05:26.197Z,81.92
2023-02-14T19:07:29.709Z,81.87
2023-02-14T19:09:39.063Z,81.93
2023-02-14T19:11:42.752Z,82.10
2023-02-14T19:13:46.857Z,82.00
2023-02-14T19:15:50.961Z,81.97
2023-02-14T19:17:54.814Z,81.96
2023-02-14T19:19:59.868Z,81.93
2023-02-14T19:22:03.472Z,81.99
2023-02-14T19:24:08.734Z,82.04
2023-02-14T19:26:14.684Z,81.85
2023-02-14T19:28:19.371Z,81.85
2023-02-14T19:30:22.918Z,81.68
2023-02-14T19:32:26.766Z,82.01
2023-02-14T19:34:31.610Z,82.14
2023-02-14T19:36:37.651Z,82.07
2023-02-14T19:38:42.703Z,81.98
2023-02-14T19:40:46.294Z,82.16
2023-02-14T19:42:50.288Z,82.08
2023-02-14T19:44:54.217Z,81.97
2023-02-14T19:47:00.184Z,81.95
2023-02-14T19:49:04.399Z,81.83
2023-02-14T19:51:08.380Z,81.71
2023-02-14T19:53:13.220Z,81.68
2023-02-14T19:55:23.474Z,81.82
2023-02-14T19:57:27.415Z,81.90
2023-02-14T19:59:32.592Z,81.89
2023-02-14T20:01:38.055Z,81.88
2023-02-14T20:03:42.193Z,81.83
2023-02-14T20:05:45.581Z,82.07
2023-02-14T20:07:52.023Z,82.31
2023-02-14T20:09:56.811Z,82.41
2023-02-14T20:12:01.529Z,82.79
2023-02-14T20:14:05.407Z,82.69
2023-02-14T20:16:11.941Z,83.04
2023-02-14T20:18:16.195Z,83.14
2023-02-14T20:20:21.578Z,83.13
2023-02-14T20:22:25.765Z,83.33
2023-02-14T20:24:30.650Z,83.49
2023-02-14T20:26:37.268Z,83.46
2023-02-14T20:28:40.692Z,83.64
2023-02-14T20:30:44.192Z,83.82
2023-02-14T20:32:47.626Z,84.05
2023-02-14T20:34:51.960Z,84.07
2023-02-14T20:36:56.069Z,83.91
2023-02-14T20:39:00.722Z,84.20
2023-02-14T20:41:05.736Z,84.17
2023-02-14T20:43:10.680Z,83.89
2023-02-14T20:45:14.065Z,84.04
2023-02-14T20:47:18.249Z,84.07
2023-02-14T20:49:23.322Z,84.29
2023-02-14T20:51:27.403Z,84.36
2023-02-14T20:53:30.753Z,84.32
2023-02-14T20:55:34.143Z,84.39
2023-02-14T20:57:38.606Z,84.57
2023-02-14T20:59:45.367Z,84.46
2023-02-14T21:01:48.755Z,84.55
2023-02-14T21:03:53.588Z,84.50
2023-02-14T21:05:57.557Z,84.73
2023-02-14T21:08:00.985Z,84.91
2023-02-14T21:10:04.512Z,84.82
2023-02-14T21:12:08.842Z,85.13
2023-02-14T21:14:12.295Z,84.99
2023-02-14T21:16:18.739Z,85.12
2023-02-14T21:18:22.582Z,85.15
2023-02-14T21:20:25.961Z,85.45
2023-02-14T21:22:29.381Z,85.46
2023-02-14T21:24:32.878Z,85.53
2023-02-14T21:26:36.621Z,85.60
2023-02-14T21:28:40.006Z,85.73
2023-02-14T21:30:43.522Z,85.68
2023-02-14T21:32:48.376Z,85.68
2023-02-14T21:34:51.812Z,85.63
2023-02-14T21:36:56.402Z,85.56
2023-02-14T21:39:01.144Z,85.62
2023-02-14T21:41:07.031Z,85.61
2023-02-14T21:43:10.489Z,85.47
2023-02-14T21:45:46.628Z,85.68
2023-02-14T21:48:05.247Z,85.59
2023-02-14T21:50:41.755Z,85.47
2023-02-14T21:52:45.270Z,85.64
2023-02-14T21:54:48.959Z,85.59
2023-02-14T21:56:52.623Z,85.79
2023-02-14T21:58:57.100Z,85.93
2023-02-14T22:01:00.940Z,85.80
2023-02-14T22:03:06.139Z,86.01
2023-02-14T22:05:09.790Z,85.86
2023-02-14T22:07:13.275Z,86.13
2023-02-14T22:09:18.755Z,85.93
2023-02-14T22:11:23.116Z,86.08
2023-02-14T22:13:27.033Z,86.31
2023-02-14T22:15:30.535Z,86.29
2023-02-14T22:17:34.436Z,86.36
2023-02-14T22:19:39.323Z,86.52
2023-02-14T22:21:44.324Z,86.47
2023-02-14T22:23:48.204Z,86.57
2023-02-14T22:25:51.657Z,86.69
2023-02-14T22:27:55.270Z,86.79
2023-02-14T22:29:58.717Z,86.75
2023-02-14T22:32:02.370Z,86.66
2023-02-14T22:34:06.225Z,86.92
2023-02-14T22:36:11.685Z,86.82
2023-02-14T22:38:15.236Z,86.88
2023-02-14T22:40:19.021Z,86.95
2023-02-14T22:42:22.501Z,86.97
2023-02-14T22:44:26.109Z,87.15
2023-02-14T22:46:30.097Z,87.26
2023-02-14T22:48:34.485Z,87.37
2023-02-14T22:50:38.006Z,87.44
2023-02-14T22:52:42.821Z,87.61
2023-02-14T22:54:46.279Z,87.73
2023-02-14T22:56:51.624Z,87.88
2023-02-14T22:58:56.646Z,87.95
2023-02-14T23:01:00.110Z,87.96
2023-02-14T23:03:03.687Z,88.34
2023-02-14T23:05:07.598Z,88.41
2023-02-14T23:07:12.066Z,88.34
2023-02-14T23:09:17.683Z,88.21
2023-02-14T23:11:22.944Z,88.42
2023-02-14T23:13:49.300Z,88.39
2023-02-14T23:16:11.836Z,88.43
2023-02-14T23:18:32.798Z,88.35
2023-02-14T23:20:53.899Z,88.33
2023-02-14T23:22:57.364Z,88.57
2023-02-14T23:25:04.536Z,88.41
2023-02-14T23:27:08.919Z,88.45
2023-02-14T23:29:12.337Z,88.34
2023-02-14T23:31:15.945Z,88.53
2023-02-14T23:33:19.886Z,88.43
2023-02-14T23:35:23.364Z,88.41
2023-02-14T23:37:26.983Z,88.46
2023-02-14T23:39:32.673Z,88.42
2023-02-14T23:41:48.809Z,88.45
2023-02-14T23:43:52.277Z,88.56
2023-02-14T23:45:55.802Z,88.50
2023-02-14T23:48:03.316Z,88.73
2023-02-14T23:50:07.824Z,88.71
2023-02-14T23:52:13.235Z,88.79
2023-02-14T23:54:17.175Z,88.72
2023-02-14T23:56:20.848Z,88.89
2023-02-14T23:58:25.750Z,88.95
